• Join FlightAware (Why Join?)
  • Login
  • US Flag 
02:44AM EDT


 

Airport Tracker/Info


-or-


 

Live Flight TrackerFlight Track Log ✈ AWE4651 ✈ 05-Oct-2013 ✈ KDCA - KRDU

Flight Track Log - Related Links

Times and Time Zones

All times are in EDT time to prevent confusion due to time zone crossing. See the AWE4651 flight status page for this flight to view local times or setup timezone preferences in your user account.

Time Position Orientation Groundspeed Altitude Reporting Facility
EDT Latitude Longitude Course Direction KTS MPH feet Rate Location/Type
10:45AM 38.8667 -77.0500 201° Southwest 158 182 800  Level Potomac TRACON
10:46AM 38.9000 -77.0833 322° Northwest 199 229 3,000 2,220 Climbing Potomac TRACON
10:47AM 38.9500 -77.1500 314° West 259 298 5,100 2,820 Climbing Potomac TRACON
10:48AM 38.6054 -77.1888 225° Southwest  Level Estimated
10:48AM 39.0000 -77.2000 322° Northwest 265 305 8,400  Level Potomac TRACON
10:49AM 38.5532 -77.2843 235° Southwest  Level FlightAware Approximate
10:49AM 38.9833 -77.2833 256° West 289 333 11,200  Level Potomac TRACON
10:50AM 38.4704 -77.3327 201° Southwest  Level Estimated
10:50AM 38.9167 -77.3333 210° Southwest 302 348 13,400  Level Potomac TRACON
10:51AM 38.8333 -77.3667 197° South 316 364 15,600 2,100 Climbing Potomac TRACON
10:52AM 38.7500 -77.4167 205° Southwest 333 383 17,700 1,680 Climbing Potomac TRACON
10:53AM 38.6667 -77.4500 197° South 334 384 19,000 1,140 Climbing Potomac TRACON
10:54AM 38.5667 -77.5000 201° Southwest 356 410 20,100 840 Climbing Potomac TRACON
10:55AM 38.4514 -77.5431 196° South 371 427 21,000 840 Climbing Washington Center
10:56AM 38.3544 -77.6039 206° Southwest 376 433 22,000 480 Climbing Washington Center
10:57AM 38.2636 -77.6808 214° Southwest 387 445 22,000  Level Washington Center
10:58AM 38.1831 -77.7525 215° Southwest 392 451 22,000  Level Washington Center
10:59AM 38.0919 -77.8292 214° Southwest 397 457 22,000  Level Washington Center
11:00AM 37.9944 -77.9131 214° Southwest 403 464 22,000  Level Washington Center
11:01AM 37.9011 -77.9919 214° Southwest 403 464 22,000  Level Washington Center
11:02AM 37.8097 -78.0706 214° Southwest 403 464 22,000  Level Washington Center
11:03AM 37.7269 -78.1386 213° Southwest 403 464 22,000  Level Washington Center
11:04AM 37.6397 -78.2169 215° Southwest 397 457 22,000  Level Washington Center
11:05AM 37.5464 -78.2975 214° Southwest 397 457 22,000  Level Washington Center
11:06AM 37.4528 -78.3728 213° Southwest 397 457 22,000  Level Washington Center
11:07AM 37.3614 -78.4478 213° Southwest 403 464 22,000  Level Washington Center
11:08AM 37.2592 -78.5300 213° Southwest 408 470 22,000  Level Washington Center
11:09AM 37.1653 -78.6100 214° Southwest 408 470 22,000  Level Washington Center
11:10AM 37.0736 -78.6869 214° Southwest 408 470 22,000  Level Washington Center
11:11AM 36.9819 -78.7639 214° Southwest 408 470 22,000 -60 Level Washington Center
11:12AM 36.8928 -78.8253 209° Southwest 402 463 21,900 -1,440 Descending Washington Center
11:13AM 36.7836 -78.8492 190° South 397 457 19,200 -2,460 Descending Washington Center
11:14AM 36.6786 -78.8733 190° South 397 457 17,100 -2,280 Descending Washington Center
11:15AM 36.5736 -78.9025 193° South 375 432 14,600 -2,340 Descending Washington Center
11:15AM 36.5569 -78.9017 178° South 347 399 14,400 -1,800 Descending Washington Center
11:16AM 36.4811 -78.9192 191° South 354 407 12,900 -1,500 Descending Washington Center
11:17AM 36.4119 -78.9344 190° South 340 391 11,700 -1,620 Descending Washington Center
11:18AM 36.3342 -78.8794 150° Southeast 290 334 9,800 -2,100 Descending Washington Center
11:18AM 36.3281 -78.8714 133° Southeast 284 327 9,600 -1,560 Descending Washington Center
11:19AM 36.2711 -78.8200 144° Southeast 284 327 8,100 -1,260 Descending Washington Center
11:20AM 36.2100 -78.7661 145° Southeast 232 267 7,200 -1,320 Descending Washington Center
11:21AM 36.1592 -78.7178 142° Southeast 243 280 5,600 -1,620 Descending Washington Center
11:21AM 36.1508 -78.7122 152° Southeast 232 267 5,400 -1,620 Descending Washington Center
11:22AM 36.0992 -78.7000 169° South 226 260 4,000 -1,500 Descending Washington Center
11:22AM 36.0867 -78.6969 169° South 227 261 3,900 -1,140 Descending Washington Center
11:23AM 36.0389 -78.6872 171° South 220 253 2,900 -1,200 Descending Washington Center
11:23AM 36.0264 -78.6867 178° South 222 255 2,700 -420 Descending Washington Center
11:24AM 35.9781 -78.6978 191° South 220 253 2,500 -240 Descending Washington Center
11:24AM 35.9717 -78.7000 196° South 198 228 2,500 -840 Level Washington Center
11:25AM 35.9378 -78.7269 213° Southwest 183 211 1,700 -840 Descending Washington Center
11:25AM 35.9333 -78.7319 222° Southwest 151 174 1,700 -780 Level Washington Center
11:26AM 35.9075 -78.7617 223° Southwest 131 151 900 -900 Descending Washington Center